createdAt,value
2022-12-18T00:01:29.186Z,48.18
2022-12-18T00:03:57.594Z,48.16
2022-12-18T00:06:27.448Z,48.07
2022-12-18T00:08:57.912Z,48.34
2022-12-18T00:11:28.379Z,47.91
2022-12-18T00:13:58.070Z,48.16
2022-12-18T00:16:28.178Z,47.78
2022-12-18T00:18:57.515Z,48.07
2022-12-18T00:21:25.771Z,47.86
2022-12-18T00:23:53.662Z,47.97
2022-12-18T00:26:25.011Z,47.96
2022-12-18T00:29:18.561Z,47.48
2022-12-18T00:31:46.377Z,47.53
2022-12-18T00:34:14.569Z,47.84
2022-12-18T00:36:42.693Z,47.67
2022-12-18T00:39:13.165Z,47.65
2022-12-18T00:42:09.966Z,47.92
2022-12-18T00:44:39.043Z,47.52
2022-12-18T00:47:06.688Z,47.52
2022-12-18T00:49:34.533Z,47.71
2022-12-18T00:52:02.409Z,47.55
2022-12-18T00:54:30.098Z,47.78
2022-12-18T00:56:58.090Z,47.61
2022-12-18T00:59:27.261Z,47.99
2022-12-18T01:01:55.292Z,47.94
2022-12-18T01:04:23.046Z,48.05
2022-12-18T01:06:50.853Z,48.21
2022-12-18T01:09:18.660Z,48.27
2022-12-18T01:11:46.379Z,48.12
2022-12-18T01:14:14.117Z,48.10
2022-12-18T01:16:42.028Z,47.91
2022-12-18T01:19:10.058Z,48.30
2022-12-18T01:21:37.818Z,48.00
2022-12-18T01:24:06.360Z,48.32
2022-12-18T01:26:35.196Z,48.75
2022-12-18T01:29:02.964Z,48.66
2022-12-18T01:31:34.128Z,48.23
2022-12-18T01:34:06.551Z,48.14
2022-12-18T01:36:38.357Z,47.80
2022-12-18T01:39:13.954Z,47.71
2022-12-18T01:42:02.125Z,47.55
2022-12-18T01:44:55.525Z,47.51
2022-12-18T01:47:29.042Z,47.41
2022-12-18T01:49:59.610Z,47.45
2022-12-18T01:52:33.017Z,47.76
2022-12-18T01:55:02.951Z,47.67
2022-12-18T01:57:30.994Z,47.75
2022-12-18T02:00:02.949Z,48.01
2022-12-18T02:02:43.202Z,47.61
2022-12-18T02:05:13.994Z,47.74
2022-12-18T02:08:11.718Z,47.30
2022-12-18T02:11:05.906Z,47.28
2022-12-18T02:13:57.268Z,47.41
2022-12-18T02:16:44.760Z,47.17
2022-12-18T02:19:31.294Z,47.30
2022-12-18T02:22:17.292Z,47.13
2022-12-18T02:25:20.456Z,47.14
2022-12-18T02:27:50.520Z,47.35
2022-12-18T02:30:20.292Z,47.50
2022-12-18T02:32:53.784Z,46.98
2022-12-18T02:35:28.995Z,47.22
2022-12-18T02:38:00.021Z,46.93
2022-12-18T02:40:31.748Z,46.84
2022-12-18T02:43:12.499Z,46.78
2022-12-18T02:45:51.887Z,46.80
2022-12-18T02:48:33.978Z,46.80
2022-12-18T02:51:17.670Z,46.80
2022-12-18T02:53:57.684Z,47.34
2022-12-18T02:56:40.354Z,47.06
2022-12-18T02:59:20.050Z,47.29
2022-12-18T03:02:24.134Z,47.34
2022-12-18T03:05:02.347Z,47.44
2022-12-18T03:08:18.590Z,47.13
2022-12-18T03:10:55.400Z,46.95
2022-12-18T03:13:36.377Z,47.30
2022-12-18T03:16:09.421Z,47.07
2022-12-18T03:18:49.883Z,46.90
2022-12-18T03:21:22.914Z,47.10
2022-12-18T03:23:54.121Z,46.72
2022-12-18T03:26:27.739Z,47.24
2022-12-18T03:29:06.368Z,46.73
2022-12-18T03:31:36.275Z,46.36
2022-12-18T03:34:10.954Z,46.29
2022-12-18T03:36:45.086Z,46.56
2022-12-18T03:39:14.956Z,46.27
2022-12-18T03:42:22.725Z,46.30
2022-12-18T03:45:04.138Z,45.70
2022-12-18T03:47:51.368Z,45.54
2022-12-18T03:50:31.208Z,45.43
2022-12-18T03:53:17.790Z,45.36
2022-12-18T03:55:50.754Z,45.24
2022-12-18T03:58:26.633Z,45.45
2022-12-18T04:01:11.189Z,44.98
2022-12-18T04:03:42.866Z,45.29
2022-12-18T04:06:12.230Z,45.07
2022-12-18T04:08:42.714Z,45.03
2022-12-18T04:11:13.302Z,45.04
2022-12-18T04:13:43.716Z,45.06
2022-12-18T04:16:19.089Z,45.06
2022-12-18T04:18:48.049Z,45.06
2022-12-18T04:21:16.450Z,45.56
2022-12-18T04:23:44.539Z,45.34
2022-12-18T04:26:12.342Z,45.46
2022-12-18T04:29:02.690Z,45.61
2022-12-18T04:31:30.785Z,45.26
2022-12-18T04:33:59.188Z,45.28
2022-12-18T04:36:27.616Z,45.32
2022-12-18T04:38:56.633Z,45.23
2022-12-18T04:41:24.549Z,44.68
2022-12-18T04:43:54.177Z,44.69
2022-12-18T04:46:23.322Z,44.56
2022-12-18T04:48:51.194Z,44.71
2022-12-18T04:51:23.301Z,44.40
2022-12-18T04:53:55.037Z,44.42
2022-12-18T04:56:23.034Z,43.91
2022-12-18T04:58:51.262Z,44.33
2022-12-18T05:01:20.212Z,44.11
2022-12-18T05:03:48.369Z,44.19
2022-12-18T05:06:16.078Z,44.40
2022-12-18T05:08:43.835Z,44.20
2022-12-18T05:11:17.909Z,44.21
2022-12-18T05:13:46.706Z,43.77
2022-12-18T05:16:14.943Z,44.17
2022-12-18T05:18:43.144Z,44.10
2022-12-18T05:21:10.917Z,44.46
2022-12-18T05:23:39.056Z,44.10
2022-12-18T05:26:08.990Z,44.10
2022-12-18T05:28:37.522Z,44.00
2022-12-18T05:31:06.433Z,43.95
2022-12-18T05:33:36.107Z,44.01
2022-12-18T05:36:07.373Z,43.97
2022-12-18T05:38:38.139Z,44.20
2022-12-18T05:41:06.767Z,44.39
2022-12-18T05:43:40.246Z,44.23
2022-12-18T05:46:12.413Z,44.48
2022-12-18T05:48:40.144Z,44.33
2022-12-18T05:51:17.807Z,45.00
2022-12-18T05:53:46.548Z,45.22
2022-12-18T05:56:16.904Z,45.23
2022-12-18T05:58:46.845Z,44.89
2022-12-18T06:01:18.330Z,45.11
2022-12-18T06:03:47.439Z,44.98
2022-12-18T06:06:25.545Z,44.91
2022-12-18T06:08:54.784Z,45.11
2022-12-18T06:11:25.905Z,44.84
2022-12-18T06:13:59.310Z,45.10
2022-12-18T06:16:28.944Z,44.91
2022-12-18T06:19:02.367Z,44.38
2022-12-18T06:21:30.497Z,44.49
2022-12-18T06:23:59.590Z,44.53
2022-12-18T06:26:28.618Z,44.36
2022-12-18T06:28:58.598Z,44.05
2022-12-18T06:31:27.300Z,43.94
2022-12-18T06:33:55.319Z,44.09
2022-12-18T06:36:23.365Z,44.40
2022-12-18T06:38:51.072Z,43.99
2022-12-18T06:41:21.987Z,44.39
2022-12-18T06:43:50.255Z,44.48
2022-12-18T06:46:18.041Z,44.38
2022-12-18T06:48:50.080Z,44.09
2022-12-18T06:51:19.838Z,44.03
2022-12-18T06:53:47.938Z,43.94
2022-12-18T06:56:15.812Z,44.15
2022-12-18T06:58:43.834Z,43.93
2022-12-18T07:01:13.607Z,43.54
2022-12-18T07:03:43.005Z,43.96
2022-12-18T07:06:19.883Z,44.09
2022-12-18T07:08:48.964Z,44.59
2022-12-18T07:11:17.873Z,43.78
2022-12-18T07:13:46.704Z,44.19
2022-12-18T07:16:24.779Z,47.27
2022-12-18T07:18:55.818Z,45.70
2022-12-18T07:21:25.613Z,44.96
2022-12-18T07:23:53.892Z,44.81
2022-12-18T07:26:22.728Z,44.43
2022-12-18T07:28:51.027Z,44.63
2022-12-18T07:31:21.523Z,44.46
2022-12-18T07:33:50.837Z,44.21
2022-12-18T07:36:18.976Z,44.51
2022-12-18T07:38:50.734Z,43.75
2022-12-18T07:41:19.749Z,44.16
2022-12-18T07:43:48.415Z,44.50
2022-12-18T07:46:17.355Z,44.25
2022-12-18T07:48:49.301Z,44.04
2022-12-18T07:51:18.586Z,44.30
2022-12-18T07:53:46.323Z,44.04
2022-12-18T07:56:32.134Z,43.85
2022-12-18T07:59:00.238Z,43.81
2022-12-18T08:01:31.203Z,44.05
2022-12-18T08:03:59.843Z,44.00
2022-12-18T08:06:27.539Z,43.39
2022-12-18T08:08:57.036Z,43.58
2022-12-18T08:11:26.719Z,43.76
2022-12-18T08:13:55.281Z,44.24
2022-12-18T08:16:24.128Z,44.58
2022-12-18T08:18:54.055Z,49.08
2022-12-18T08:21:28.077Z,47.65
2022-12-18T08:23:58.276Z,47.15
2022-12-18T08:26:29.825Z,44.99
2022-12-18T08:28:59.050Z,44.82
2022-12-18T08:31:28.608Z,44.82
2022-12-18T08:33:57.847Z,44.97
2022-12-18T08:36:26.453Z,45.28
2022-12-18T08:38:55.299Z,45.01
2022-12-18T08:41:23.800Z,45.09
2022-12-18T08:44:10.742Z,45.27
2022-12-18T08:46:41.487Z,45.19
2022-12-18T08:49:11.021Z,45.17
2022-12-18T08:51:40.299Z,46.94
2022-12-18T08:54:10.641Z,46.71
2022-12-18T08:56:38.639Z,46.60
2022-12-18T08:59:06.475Z,47.33
2022-12-18T09:01:34.406Z,46.13
2022-12-18T09:04:03.420Z,45.43
2022-12-18T09:06:32.270Z,44.96
2022-12-18T09:09:01.133Z,44.38
2022-12-18T09:11:30.802Z,44.35
2022-12-18T09:14:00.537Z,44.18
2022-12-18T09:16:32.403Z,44.31
2022-12-18T09:19:01.515Z,45.08
2022-12-18T09:21:34.412Z,45.23
2022-12-18T09:24:06.945Z,44.52
2022-12-18T09:26:37.765Z,44.33
2022-12-18T09:29:08.305Z,45.74
2022-12-18T09:31:37.341Z,46.87
2022-12-18T09:34:07.082Z,47.14
2022-12-18T09:36:35.378Z,47.84
2022-12-18T09:39:08.108Z,45.80
2022-12-18T09:41:44.747Z,46.08
2022-12-18T09:44:44.448Z,46.62
2022-12-18T09:47:19.336Z,46.64
2022-12-18T09:49:50.727Z,46.02
2022-12-18T09:52:48.516Z,46.52
2022-12-18T09:55:38.855Z,46.07
2022-12-18T09:58:23.217Z,46.78
2022-12-18T10:00:53.480Z,45.68
2022-12-18T10:03:22.173Z,45.83
2022-12-18T10:06:09.324Z,45.51
2022-12-18T10:08:44.465Z,46.51
2022-12-18T10:11:30.424Z,45.50
2022-12-18T10:14:31.778Z,46.04
2022-12-18T10:16:59.386Z,46.11
2022-12-18T10:19:50.519Z,46.44
2022-12-18T10:22:53.737Z,47.35
2022-12-18T10:25:32.508Z,46.77
2022-12-18T10:28:11.719Z,47.32
2022-12-18T10:30:41.356Z,46.56
2022-12-18T10:33:16.576Z,45.85
2022-12-18T10:35:46.568Z,46.20
2022-12-18T10:38:14.161Z,45.69
2022-12-18T10:40:58.212Z,45.48
2022-12-18T10:43:30.694Z,45.22
2022-12-18T10:46:04.760Z,45.30
2022-12-18T10:48:34.417Z,46.53
2022-12-18T10:51:10.911Z,45.75
2022-12-18T10:53:44.003Z,46.52
2022-12-18T10:56:13.201Z,46.68
2022-12-18T10:58:41.717Z,47.26
2022-12-18T11:01:14.435Z,46.43
2022-12-18T11:04:03.365Z,47.26
2022-12-18T11:06:33.893Z,47.08
2022-12-18T11:09:12.301Z,46.74
2022-12-18T11:11:41.118Z,47.48
2022-12-18T11:14:24.254Z,47.25
2022-12-18T11:19:42.557Z,47.59
2022-12-18T11:22:33.447Z,47.87
2022-12-18T11:25:32.480Z,47.48
2022-12-18T11:28:06.977Z,47.51
2022-12-18T11:30:37.991Z,47.95
2022-12-18T11:33:05.767Z,48.40
2022-12-18T11:35:50.153Z,48.11
2022-12-18T11:38:27.312Z,48.56
2022-12-18T11:41:07.231Z,47.99
2022-12-18T11:43:51.245Z,48.02
2022-12-18T11:46:28.568Z,48.52
2022-12-18T11:49:11.650Z,48.92
2022-12-18T11:52:19.764Z,52.23
2022-12-18T11:54:51.449Z,49.63
2022-12-18T11:57:47.248Z,48.53
2022-12-18T12:00:21.174Z,48.64
2022-12-18T12:03:19.819Z,48.93
2022-12-18T12:06:02.258Z,48.33
2022-12-18T12:08:48.768Z,47.99
2022-12-18T12:11:34.060Z,47.83
2022-12-18T12:14:01.872Z,47.94
2022-12-18T12:17:14.551Z,47.72
2022-12-18T12:19:48.584Z,48.15
2022-12-18T12:22:58.008Z,48.14
2022-12-18T12:25:39.282Z,48.52
2022-12-18T12:28:19.405Z,48.83
2022-12-18T12:30:57.520Z,48.71
2022-12-18T12:33:44.361Z,48.87
2022-12-18T12:36:21.400Z,48.59
2022-12-18T12:38:58.565Z,48.38
2022-12-18T12:41:47.022Z,48.30
2022-12-18T12:44:23.273Z,48.19
2022-12-18T12:46:56.286Z,48.08
2022-12-18T12:49:29.090Z,48.29
2022-12-18T12:52:08.820Z,49.16
2022-12-18T12:54:37.771Z,50.94
2022-12-18T12:57:44.119Z,51.67
2022-12-18T13:00:18.098Z,51.97
2022-12-18T13:03:14.325Z,51.72
2022-12-18T13:05:47.851Z,50.68
2022-12-18T13:08:33.988Z,51.85
2022-12-18T13:11:22.413Z,51.32
2022-12-18T13:13:57.959Z,51.26
2022-12-18T13:16:28.608Z,50.57
2022-12-18T13:18:59.984Z,51.89
2022-12-18T13:21:34.723Z,51.58
2022-12-18T13:24:26.767Z,50.73
2022-12-18T13:26:55.332Z,50.22
2022-12-18T13:29:45.559Z,49.74
2022-12-18T13:32:26.639Z,50.30
2022-12-18T13:35:35.485Z,51.22
2022-12-18T13:38:27.231Z,51.58
2022-12-18T13:40:56.907Z,49.49
2022-12-18T13:43:46.519Z,49.08
2022-12-18T13:46:48.727Z,51.28
2022-12-18T13:49:45.539Z,50.34
2022-12-18T13:52:23.910Z,49.43
2022-12-18T13:55:19.393Z,49.35
2022-12-18T13:57:47.721Z,49.87
2022-12-18T14:00:26.464Z,50.17
2022-12-18T14:02:54.356Z,50.25
2022-12-18T14:05:23.819Z,49.33
2022-12-18T14:07:53.097Z,49.76
2022-12-18T14:13:12.561Z,50.36
2022-12-18T14:15:43.943Z,50.25
2022-12-18T14:18:30.689Z,49.70
2022-12-18T14:21:01.048Z,49.65
2022-12-18T14:23:41.375Z,50.88
2022-12-18T14:26:30.469Z,50.57
2022-12-18T14:29:21.665Z,50.83
2022-12-18T14:32:17.022Z,50.37
2022-12-18T14:34:51.127Z,50.65
2022-12-18T14:37:24.227Z,51.09
2022-12-18T14:40:10.548Z,51.57
2022-12-18T14:42:39.585Z,50.99
2022-12-18T14:45:40.984Z,50.60
2022-12-18T14:48:21.571Z,50.92
2022-12-18T14:51:20.210Z,51.40
2022-12-18T14:54:15.509Z,51.29
2022-12-18T14:56:49.884Z,51.06
2022-12-18T14:59:25.198Z,50.94
2022-12-18T15:02:09.855Z,50.78
2022-12-18T15:04:43.006Z,50.90
2022-12-18T15:07:12.508Z,50.88
2022-12-18T15:09:43.001Z,50.77
2022-12-18T15:12:35.425Z,50.66
2022-12-18T15:15:05.408Z,50.53
2022-12-18T15:17:34.270Z,50.54
2022-12-18T15:20:10.381Z,50.27
2022-12-18T15:22:39.733Z,50.22
2022-12-18T15:25:37.905Z,50.29
2022-12-18T15:28:19.865Z,49.56
2022-12-18T15:31:05.526Z,49.88
2022-12-18T15:33:55.380Z,50.27
2022-12-18T15:36:26.334Z,50.50
2022-12-18T15:39:04.676Z,50.39
2022-12-18T15:41:38.206Z,50.53
2022-12-18T15:44:26.534Z,50.30
2022-12-18T15:46:54.350Z,50.49
2022-12-18T15:49:22.168Z,50.30
2022-12-18T15:51:55.828Z,50.81
2022-12-18T15:54:44.007Z,50.41
2022-12-18T15:57:24.814Z,50.57
2022-12-18T15:59:54.534Z,49.91
2022-12-18T16:02:24.334Z,49.97
2022-12-18T16:04:53.406Z,50.15
2022-12-18T16:07:25.189Z,50.61
2022-12-18T16:09:53.688Z,50.65
2022-12-18T16:12:23.748Z,50.72
2022-12-18T16:14:52.114Z,51.02
2022-12-18T16:17:20.140Z,50.90
2022-12-18T16:19:48.025Z,50.98
2022-12-18T16:22:24.564Z,51.00
2022-12-18T16:24:54.054Z,51.67
2022-12-18T16:27:22.838Z,51.23
2022-12-18T16:29:51.680Z,51.38
2022-12-18T16:32:22.009Z,51.64
2022-12-18T16:34:51.369Z,51.75
2022-12-18T16:37:19.380Z,52.42
2022-12-18T16:39:47.571Z,52.01
2022-12-18T16:42:20.720Z,51.73
2022-12-18T16:44:50.665Z,51.65
2022-12-18T16:47:19.135Z,52.02
2022-12-18T16:49:47.162Z,51.42
2022-12-18T16:52:15.386Z,51.66
2022-12-18T16:54:43.257Z,51.94
2022-12-18T16:57:16.010Z,52.39
2022-12-18T16:59:44.023Z,51.89
2022-12-18T17:02:24.591Z,51.74
2022-12-18T17:04:57.303Z,52.26
2022-12-18T17:07:26.295Z,51.82
2022-12-18T17:09:54.437Z,51.87
2022-12-18T17:12:24.127Z,52.00
2022-12-18T17:14:51.916Z,51.60
2022-12-18T17:17:21.947Z,51.64
2022-12-18T17:19:51.732Z,51.73
2022-12-18T17:22:20.380Z,52.11
2022-12-18T17:24:48.341Z,51.91
2022-12-18T17:27:16.446Z,51.87
2022-12-18T17:29:47.735Z,51.88
2022-12-18T17:32:17.382Z,51.87
2022-12-18T17:34:45.423Z,52.07
2022-12-18T17:37:13.378Z,51.76
2022-12-18T17:39:42.165Z,52.19
2022-12-18T17:42:14.784Z,52.03
2022-12-18T17:44:44.359Z,51.84
2022-12-18T17:47:13.820Z,52.12
2022-12-18T17:49:41.657Z,52.26
2022-12-18T17:52:09.910Z,52.05
2022-12-18T17:54:39.998Z,52.24
2022-12-18T17:57:10.552Z,51.89
2022-12-18T17:59:38.682Z,52.33
2022-12-18T18:02:06.700Z,51.96
2022-12-18T18:04:36.145Z,52.10
2022-12-18T18:07:03.930Z,51.91
2022-12-18T18:09:33.348Z,52.07
2022-12-18T18:12:19.804Z,52.08
2022-12-18T18:14:47.888Z,52.19
2022-12-18T18:17:16.007Z,52.48
2022-12-18T18:19:46.773Z,52.33
2022-12-18T18:22:17.829Z,52.25
2022-12-18T18:24:47.116Z,53.18
2022-12-18T18:27:15.216Z,52.92
2022-12-18T18:29:43.438Z,52.48
2022-12-18T18:32:11.328Z,52.72
2022-12-18T18:34:41.281Z,52.33
2022-12-18T18:37:10.510Z,52.48
2022-12-18T18:39:38.580Z,52.01
2022-12-18T18:42:06.645Z,52.36
2022-12-18T18:44:34.427Z,52.08
2022-12-18T18:47:02.836Z,52.63
2022-12-18T18:49:34.888Z,52.14
2022-12-18T18:52:03.926Z,52.32
2022-12-18T18:54:31.768Z,52.35
2022-12-18T18:59:47.458Z,52.83
2022-12-18T19:02:15.923Z,52.74
2022-12-18T19:04:46.517Z,52.30
2022-12-18T19:07:24.327Z,51.93
2022-12-18T19:10:04.288Z,52.47
2022-12-18T19:12:52.686Z,52.07
2022-12-18T19:15:22.926Z,51.94
2022-12-18T19:17:50.961Z,51.86
2022-12-18T19:20:19.594Z,52.19
2022-12-18T19:22:55.217Z,51.85
2022-12-18T19:25:40.678Z,50.94
2022-12-18T19:28:15.344Z,54.45
2022-12-18T19:30:56.343Z,53.42
2022-12-18T19:33:42.468Z,53.32
2022-12-18T19:36:12.429Z,52.31
2022-12-18T19:38:44.946Z,51.88
2022-12-18T19:41:15.726Z,52.12
2022-12-18T19:43:45.543Z,51.54
2022-12-18T19:46:16.330Z,50.98
2022-12-18T19:48:46.778Z,50.29
2022-12-18T19:51:18.185Z,50.41
2022-12-18T19:53:46.996Z,51.44
2022-12-18T19:56:21.331Z,51.37
2022-12-18T19:58:49.696Z,50.18
2022-12-18T20:01:19.021Z,49.99
2022-12-18T20:03:52.652Z,49.59
2022-12-18T20:06:31.604Z,49.59
2022-12-18T20:09:02.301Z,50.06
2022-12-18T20:11:31.209Z,49.73
2022-12-18T20:13:59.167Z,49.58
2022-12-18T20:16:27.095Z,49.82
2022-12-18T20:18:57.840Z,49.48
2022-12-18T20:21:26.439Z,49.86
2022-12-18T20:23:56.003Z,49.53
2022-12-18T20:26:25.012Z,49.30
2022-12-18T20:28:54.388Z,48.94
2022-12-18T20:31:23.025Z,49.09
2022-12-18T20:33:52.175Z,49.26
2022-12-18T20:36:23.367Z,49.41
2022-12-18T20:38:57.238Z,49.31
2022-12-18T20:41:35.035Z,49.16
2022-12-18T20:44:23.134Z,49.12
2022-12-18T20:46:57.028Z,49.23
2022-12-18T20:49:27.471Z,49.13
2022-12-18T20:51:57.335Z,49.95
2022-12-18T20:54:27.387Z,50.41
2022-12-18T20:56:58.345Z,50.33
2022-12-18T20:59:29.183Z,50.20
2022-12-18T21:01:57.174Z,49.15
2022-12-18T21:04:26.450Z,49.10
2022-12-18T21:07:02.103Z,49.03
2022-12-18T21:09:37.721Z,49.22
2022-12-18T21:12:40.317Z,50.20
2022-12-18T21:15:12.040Z,49.77
2022-12-18T21:17:44.605Z,50.14
2022-12-18T21:20:17.521Z,50.03
2022-12-18T21:22:47.150Z,49.39
2022-12-18T21:25:15.236Z,49.30
2022-12-18T21:27:43.169Z,49.36
2022-12-18T21:30:15.116Z,48.95
2022-12-18T21:32:44.264Z,49.15
2022-12-18T21:35:12.082Z,48.67
2022-12-18T21:37:40.082Z,48.96
2022-12-18T21:40:08.814Z,49.02
2022-12-18T21:42:55.265Z,48.98
2022-12-18T21:45:23.106Z,49.04
2022-12-18T21:47:51.012Z,48.66
2022-12-18T21:50:18.855Z,48.59
2022-12-18T21:52:46.579Z,49.08
2022-12-18T21:55:14.292Z,48.76
2022-12-18T21:57:42.187Z,48.93
2022-12-18T22:00:18.174Z,48.69
2022-12-18T22:02:47.835Z,48.78
2022-12-18T22:05:17.324Z,49.23
2022-12-18T22:07:46.265Z,48.93
2022-12-18T22:10:14.127Z,48.90
2022-12-18T22:12:43.940Z,49.07
2022-12-18T22:15:18.313Z,49.10
2022-12-18T22:17:58.711Z,49.25
2022-12-18T22:20:30.037Z,49.31
2022-12-18T22:22:58.460Z,49.20
2022-12-18T22:25:26.572Z,49.21
2022-12-18T22:28:12.851Z,48.99
2022-12-18T22:30:40.784Z,49.14
2022-12-18T22:33:08.651Z,48.89
2022-12-18T22:35:36.768Z,49.06
2022-12-18T22:38:05.022Z,49.15
2022-12-18T22:40:32.718Z,49.01
2022-12-18T22:43:00.410Z,48.89
2022-12-18T22:45:28.242Z,49.12
2022-12-18T22:47:56.284Z,49.15
2022-12-18T22:50:24.180Z,49.03
2022-12-18T22:52:51.967Z,49.04
2022-12-18T22:55:19.960Z,49.05
2022-12-18T22:57:48.698Z,49.08
2022-12-18T23:00:19.886Z,49.16
2022-12-18T23:03:00.351Z,49.22
2022-12-18T23:05:30.363Z,48.65
2022-12-18T23:07:59.257Z,49.09
2022-12-18T23:10:27.770Z,48.88
2022-12-18T23:12:55.611Z,48.53
2022-12-18T23:15:27.854Z,48.45
2022-12-18T23:17:58.210Z,48.58
2022-12-18T23:20:27.530Z,48.51
2022-12-18T23:22:55.466Z,48.69
2022-12-18T23:25:25.089Z,48.42
2022-12-18T23:27:53.045Z,48.69
2022-12-18T23:30:21.161Z,48.48
2022-12-18T23:32:48.911Z,48.51
2022-12-18T23:35:17.626Z,48.83
2022-12-18T23:37:58.796Z,48.77
2022-12-18T23:40:29.015Z,48.90
2022-12-18T23:42:57.032Z,49.13
2022-12-18T23:45:24.797Z,48.94
2022-12-18T23:47:52.444Z,48.77
2022-12-18T23:50:23.779Z,48.37
2022-12-18T23:52:57.450Z,48.71
2022-12-18T23:55:32.968Z,48.42
2022-12-18T23:58:00.777Z,48.85
